Résultats

Cross Nativitée C02 : 2des Garçons. Édition 2018.

0 Km
23/03/2018 à 08:40:00 - ()
111 arrivant(e)s.





Place▲ Temps Dossard Nom Prenom Categ #Categ Sexe #Sexe Club Vit Moy Diplôme Partager
1 00:04:24 353 ROUX VICTOR CAM 1 M 1 2-4 17.73
2 00:04:36 268 MANGIATORDI JULIEN CAM 2 M 2 2-2 16.96
3 00:04:41 412 DULON ANATOLE MIM 1 M 3 2-6 16.65
4 00:04:41 313 MICHEL ADRIEN CAM 3 M 4 2-3 16.65
5 00:04:46 296 CHERRY THOMAS MIM 2 M 5 2-3 16.36
6 00:04:48 461 ROSTAND ALEXIS CAM 4 M 6 2-7 16.25
7 00:04:49 291 BORTOLI VALENTIN CAM 5 M 7 2-3 16.19
8 00:04:49 467 VERNET PAUL CAM 6 M 8 2-7 16.19
9 00:04:52 253 BOILEUX MATHIS CAM 7 M 9 2-2 16.03
10 00:04:53 319 RONOT BAPTISTE MIM 3 M 10 2-3 15.97
11 00:04:53 285 VILLECROZE SACHA MIM 4 M 11 2-2 15.97
12 00:04:58 345 MERY ALEXANDRE MIM 5 M 12 2-4 15.70
13 00:05:00 257 BOUISSET ADRIEN CAM 8 M 13 2-2 15.60
14 00:05:03 344 MAZARI MAXIME CAM 9 M 14 2-4 15.45
15 00:05:05 248 SOUZAN ISAAC CAM 10 M 15 2-1 15.34
16 00:05:07 424 PEYRE THEO CAM 11 M 16 2-6 15.24
17 00:05:07 287 BAROUX ALEXANDRE CAM 12 M 17 2-3 15.24
18 00:05:07 348 MOURON YANIS CAM 13 M 18 2-4 15.24
19 00:05:07 470 VINCOURT ELIOTT CAM 14 M 19 2-7 15.24
20 00:05:11 333 DHONDT MAXENCE MIM 6 M 20 2-4 15.05
21 00:05:11 450 GENRE OSCAR CAM 15 M 21 2-7 15.05
22 00:05:11 466 VAUTHERIN--MOTTOT ELOI CAM 16 M 22 2-7 15.05
23 00:05:12 448 GARBARINI GUILLAUME CAM 17 M 23 2-7 15.00
24 00:05:16 426 RICHAUD MARIUS CAM 18 M 24 2-6 14.81
25 00:05:17 365 DANVEAU EMERIC CAM 19 M 25 2-5 14.76
26 00:05:18 430 SICARDI ANTOINE CAM 20 M 26 2-6 14.72
27 00:05:18 294 BOULOGNE MAXIME CAM 21 M 27 2-3 14.72
28 00:05:20 233 JASPARD ARNAUD CAM 22 M 28 2-1 14.62
29 00:05:21 262 DUMOND LEO CAM 23 M 29 2-2 14.58
30 00:05:23 230 HOFMAN COLIN CAM 24 M 30 2-1 14.49
31 00:05:24 406 BOURDON JULES CAM 25 M 31 2-6 14.44
32 00:05:25 363 BOULLIER PAUL CAM 26 M 32 2-5 14.40
33 00:05:25 420 MINGUELLA MATTHIEU MIM 7 M 33 2-6 14.40
34 00:05:25 451 GOHIN MAXENCE CAM 27 M 34 2-7 14.40
35 00:05:26 301 DUVAL GABRIEL MIM 8 M 35 2-3 14.36
36 00:05:29 395 VIGREUX CHARLES CAM 28 M 36 2-5 14.22
37 00:05:30 295 CARON NEIL CAM 29 M 37 2-3 14.18
38 00:05:31 255 BOMATI MAXIME CAM 30 M 38 2-2 14.14
39 00:05:32 415 FOLLIERO-DE-LUNA YOAN CAM 31 M 39 2-6 14.10
40 00:05:33 455 HOUY NICOLAS CAM 32 M 40 2-7 14.05
41 00:05:34 368 GAMBINO LEO CAM 33 M 41 2-5 14.01
42 00:05:34 456 LE-FLOCH-CHARLES JOHAN CAM 34 M 42 2-7 14.01
43 00:05:35 275 MONDIN GAUTHIER CAM 35 M 43 2-2 13.97
44 00:05:36 215 BAUDHUIN MAXIME CAM 36 M 44 2-1 13.93
45 00:05:37 413 ESMIOL FABIO CAM 37 M 45 2-6 13.89
46 00:05:37 376 LEGRAIN AURELIEN CAM 38 M 46 2-5 13.89
47 00:05:38 384 ROKIA NOAH CAM 39 M 47 2-5 13.85
48 00:05:40 254 BOILEUX YOANN CAM 40 M 48 2-2 13.76
49 00:05:43 236 LEBEAU ALEXANDRE MIM 9 M 49 2-1 13.64
50 00:05:44 300 DAVID ALEXANDRE CAM 41 M 50 2-3 13.60
51 00:05:44 347 MORLAIX SYDNEY CAM 42 M 51 2-4 13.60
52 00:05:44 273 MAS PAUL CAM 43 M 52 2-2 13.60
53 00:05:46 312 METAIS ALEXANDRE MIM 10 M 53 2-3 13.53
54 00:05:46 258 BOURSIN WILLIAM CAM 44 M 54 2-2 13.53
55 00:05:46 269 MARCHAND JEREMY CAM 45 M 55 2-2 13.53
56 00:05:46 250 ACHOTIAN ALEX CAM 46 M 56 2-2 13.53
57 00:05:47 302 ELYAHMIDI NASSIM CAM 47 M 57 2-3 13.49
58 00:05:48 369 GROUALLE BASTIEN CAM 48 M 58 2-5 13.45
59 00:05:48 375 JUSTINE TRISTAN CAM 49 M 59 2-5 13.45
60 00:05:49 341 LEROY ALEXIS CAM 50 M 60 2-4 13.41
61 00:05:51 247 SARTORIS PIERRE-LOUIS CAM 51 M 61 2-1 13.33
62 00:05:51 402 BERTHE HUGO MIM 11 M 62 2-6 13.33
63 00:05:53 260 CAPPELLINI DORIAN MIM 12 M 63 2-2 13.26
64 00:05:55 434 WALTER LOIC CAM 52 M 64 2-6 13.18
65 00:05:56 252 BAGLIONE PIERRE-SACHA CAM 53 M 65 2-2 13.15
66 00:05:58 409 CISAMOLO AUGUSTIN CAM 54 M 66 2-6 13.07
67 00:05:59 337 GUERIN JEAN-MAXIME CAM 55 M 67 2-4 13.04
68 00:05:59 425 REUSA-VERDONI ANTOINE CAM 56 M 68 2-6 13.04
69 00:06:00 359 VERNET VICTOR CAM 57 M 69 2-4 13.00
70 00:06:01 270 MARGAILLAN KYLIAN CAM 58 M 70 2-2 12.96
71 00:06:04 342 LUCA LIVIO CAM 59 M 71 2-4 12.86
72 00:06:04 299 CORRE WILLIAM CAM 60 M 72 2-3 12.86
73 00:06:04 350 PASTEUR KILIAN CAM 61 M 73 2-4 12.86
74 00:06:05 336 GARDET THEO MIM 13 M 74 2-4 12.82
75 00:06:07 410 COLIN BASTIEN CAM 62 M 75 2-6 12.75
76 00:06:08 361 AIRAUDO BAPTISTE CAM 63 M 76 2-5 12.72
77 00:06:08 317 RENE-WORMS VINCENT MIM 14 M 77 2-3 12.72
78 00:06:12 245 PEAUCELLE CLEMENT CAM 64 M 78 2-1 12.58
79 00:06:12 444 DE-VERBIGIER-DE-ST-PAUL GREGOIRE CAM 65 M 79 2-7 12.58
80 00:06:12 411 DE-PALMA ALEXANDRE CAM 66 M 80 2-6 12.58
81 00:06:13 298 CIREE AURELIEN CAM 67 M 81 2-3 12.55
82 00:06:13 364 CRISTOFINI THEO CAM 68 M 82 2-5 12.55
83 00:06:13 330 COLAS-DEMANGEOT THIBAULT CAM 69 M 83 2-4 12.55
84 00:06:15 388 TAIEB RUDY CAM 70 M 84 2-5 12.48
85 00:06:17 310 LATRECHE ADRIEN CAM 71 M 85 2-3 12.41
86 00:06:18 386 SAVARINO MATTEO CAM 72 M 86 2-5 12.38
87 00:06:19 229 GUILLIER BAPTISTE MIM 15 M 87 2-1 12.35
88 00:06:21 263 DUTILLEUL THEO CAM 73 M 88 2-2 12.28
89 00:06:21 326 CARENOU TANGUY CAM 74 M 89 2-4 12.28
90 00:06:21 226 DUBOIS BASILE CAM 75 M 90 2-1 12.28
91 00:06:23 378 MIRANDA-LEMOS DIEGO CAM 76 M 91 2-5 12.22
92 00:06:24 394 VIGNOLLES THIBAULT CAM 77 M 92 2-5 12.19
93 00:06:25 284 ROUVIER FLORIAN MIM 16 M 93 2-2 12.16
94 00:06:32 385 SANYAS ARTHUR CAM 78 M 94 2-5 11.94
95 00:06:41 403 BERTHOLIO GUILLAUME CAM 79 M 95 2-6 11.67
96 00:06:43 288 BAUDOIN VICTORIEN CAM 80 M 96 2-3 11.61
97 00:06:44 334 ENCISO MATHYS CAM 81 M 97 2-4 11.58
98 00:06:54 292 BOSSY-LECHENADEC THEO CAM 82 M 98 2-3 11.30
99 00:06:57 416 GOMEZ ELIO CAM 83 M 99 2-6 11.22
100 00:07:04 240 MEDEBBEUR ILIAN MIM 17 M 100 2-1 11.04